createdAt,value
2022-11-28T00:01:35.895Z,-2.96
2022-11-28T00:04:04.350Z,-2.93
2022-11-28T00:06:32.925Z,-2.92
2022-11-28T00:09:01.966Z,-2.97
2022-11-28T00:11:31.633Z,-2.93
2022-11-28T00:13:59.864Z,-2.97
2022-11-28T00:16:28.274Z,-2.91
2022-11-28T00:18:56.826Z,-3.03
2022-11-28T00:21:25.132Z,-3.06
2022-11-28T00:23:53.507Z,-3.15
2022-11-28T00:26:24.316Z,-3.19
2022-11-28T00:28:54.503Z,-3.24
2022-11-28T00:31:24.308Z,-3.32
2022-11-28T00:33:52.621Z,-3.30
2022-11-28T00:36:21.691Z,-3.24
2022-11-28T00:38:50.902Z,-3.16
2022-11-28T00:41:20.603Z,-3.16
2022-11-28T00:43:50.200Z,-3.16
2022-11-28T00:46:21.080Z,-3.07
2022-11-28T00:48:50.192Z,-3.06
2022-11-28T00:51:20.417Z,-3.27
2022-11-28T00:53:50.332Z,-3.47
2022-11-28T00:56:20.171Z,-3.44
2022-11-28T00:58:49.925Z,-3.40
2022-11-28T01:01:22.615Z,-3.50
2022-11-28T01:03:52.202Z,-3.68
2022-11-28T01:06:27.129Z,-3.79
2022-11-28T01:08:56.010Z,-3.81
2022-11-28T01:11:24.237Z,-3.79
2022-11-28T01:13:52.501Z,-3.71
2022-11-28T01:16:22.255Z,-3.71
2022-11-28T01:18:50.557Z,-3.82
2022-11-28T01:21:18.864Z,-3.87
2022-11-28T01:23:47.304Z,-3.86
2022-11-28T01:26:18.172Z,-3.88
2022-11-28T01:28:46.583Z,-3.94
2022-11-28T01:31:16.949Z,-3.85
2022-11-28T01:33:46.633Z,-3.91
2022-11-28T01:36:15.307Z,-3.89
2022-11-28T01:38:43.838Z,-3.93
2022-11-28T01:41:13.221Z,-4.10
2022-11-28T01:44:06.243Z,-3.98
2022-11-28T01:46:35.279Z,-3.97
2022-11-28T01:49:09.285Z,-3.97
2022-11-28T01:51:37.677Z,-4.07
2022-11-28T01:54:06.454Z,-3.92
2022-11-28T01:56:41.569Z,-3.95
2022-11-28T01:59:11.144Z,-3.83
2022-11-28T02:01:39.621Z,-3.95
2022-11-28T02:04:10.822Z,-3.93
2022-11-28T02:06:39.068Z,-3.90
2022-11-28T02:09:10.717Z,-3.83
2022-11-28T02:11:59.004Z,-3.82
2022-11-28T02:14:44.716Z,-3.96
2022-11-28T02:17:20.490Z,-3.99
2022-11-28T02:20:22.631Z,-3.92
2022-11-28T02:22:57.279Z,-4.06
2022-11-28T02:25:55.143Z,-4.07
2022-11-28T02:28:50.670Z,-4.04
2022-11-28T02:31:29.246Z,-4.01
2022-11-28T02:34:01.414Z,-4.00
2022-11-28T02:36:32.072Z,-4.01
2022-11-28T02:39:06.445Z,-4.08
2022-11-28T02:41:36.561Z,-4.05
2022-11-28T02:44:12.828Z,-4.04
2022-11-28T02:46:46.966Z,-4.20
2022-11-28T02:49:20.043Z,-4.06
2022-11-28T02:51:51.475Z,-4.09
2022-11-28T02:54:20.158Z,-4.14
2022-11-28T02:56:49.438Z,-4.07
2022-11-28T02:59:31.567Z,-4.03
2022-11-28T03:02:00.917Z,-3.99
2022-11-28T03:04:35.223Z,-3.99
2022-11-28T03:07:10.224Z,-4.01
2022-11-28T03:09:56.373Z,-4.07
2022-11-28T03:12:30.268Z,-4.18
2022-11-28T03:15:00.600Z,-4.09
2022-11-28T03:17:39.777Z,-4.03
2022-11-28T03:20:16.814Z,-4.03
2022-11-28T03:22:57.091Z,-3.97
2022-11-28T03:25:30.725Z,-3.99
2022-11-28T03:28:01.855Z,-4.02
2022-11-28T03:30:33.638Z,-3.95
2022-11-28T03:33:02.997Z,-3.90
2022-11-28T03:35:37.438Z,-4.03
2022-11-28T03:38:09.322Z,-4.05
2022-11-28T03:40:42.463Z,-3.95
2022-11-28T03:43:12.858Z,-3.95
2022-11-28T03:45:43.653Z,-3.85
2022-11-28T03:48:13.660Z,-3.91
2022-11-28T03:50:45.545Z,-3.94
2022-11-28T03:53:17.629Z,-3.90
2022-11-28T03:55:50.286Z,-3.97
2022-11-28T03:58:22.869Z,-3.98
2022-11-28T04:01:00.195Z,-3.98
2022-11-28T04:03:36.160Z,-3.99
2022-11-28T04:06:09.960Z,-3.96
2022-11-28T04:08:40.575Z,-3.81
2022-11-28T04:11:10.690Z,-3.86
2022-11-28T04:13:42.997Z,-3.79
2022-11-28T04:16:15.541Z,-3.82
2022-11-28T04:18:50.578Z,-3.89
2022-11-28T04:21:22.951Z,-3.88
2022-11-28T04:23:52.653Z,-3.84
2022-11-28T04:26:24.288Z,-3.89
2022-11-28T04:28:53.934Z,-3.86
2022-11-28T04:31:24.018Z,-3.84
2022-11-28T04:33:57.288Z,-3.88
2022-11-28T04:36:27.504Z,-3.93
2022-11-28T04:38:57.632Z,-3.84
2022-11-28T04:41:28.584Z,-3.78
2022-11-28T04:44:02.152Z,-3.75
2022-11-28T04:46:34.514Z,-3.72
2022-11-28T04:49:02.764Z,-3.61
2022-11-28T04:51:37.540Z,-3.66
2022-11-28T04:54:09.008Z,-3.68
2022-11-28T04:56:40.509Z,-3.71
2022-11-28T04:59:09.175Z,-3.64
2022-11-28T05:01:40.106Z,-3.53
2022-11-28T05:04:08.722Z,-3.59
2022-11-28T05:06:38.412Z,-3.53
2022-11-28T05:09:06.808Z,-3.64
2022-11-28T05:11:35.171Z,-3.73
2022-11-28T05:14:03.421Z,-3.76
2022-11-28T05:16:31.819Z,-3.74
2022-11-28T05:19:00.319Z,-3.70
2022-11-28T05:21:28.592Z,-3.73
2022-11-28T05:23:58.257Z,-3.68
2022-11-28T05:26:26.491Z,-3.64
2022-11-28T05:28:55.227Z,-3.63
2022-11-28T05:31:23.497Z,-3.55
2022-11-28T05:33:51.899Z,-3.57
2022-11-28T05:36:20.104Z,-3.66
2022-11-28T05:38:48.432Z,-3.55
2022-11-28T05:41:22.028Z,-3.70
2022-11-28T05:43:50.361Z,-3.69
2022-11-28T05:46:19.324Z,-3.64
2022-11-28T05:48:48.007Z,-3.76
2022-11-28T05:51:16.237Z,-3.77
2022-11-28T05:53:44.545Z,-3.68
2022-11-28T05:56:15.163Z,-3.74
2022-11-28T05:58:44.939Z,-3.76
2022-11-28T06:01:14.748Z,-3.69
2022-11-28T06:03:43.531Z,-3.82
2022-11-28T06:06:14.025Z,-3.80
2022-11-28T06:08:42.466Z,-3.94
2022-11-28T06:11:11.256Z,-3.91
2022-11-28T06:13:39.629Z,-3.83
2022-11-28T06:16:11.073Z,-3.86
2022-11-28T06:18:39.375Z,-3.86
2022-11-28T06:21:09.579Z,-3.87
2022-11-28T06:23:38.700Z,-3.87
2022-11-28T06:26:07.877Z,-3.82
2022-11-28T06:28:36.299Z,-3.84
2022-11-28T06:31:04.933Z,-3.88
2022-11-28T06:33:34.572Z,-3.91
2022-11-28T06:36:09.101Z,-3.81
2022-11-28T06:38:37.311Z,-3.77
2022-11-28T06:41:07.574Z,-3.72
2022-11-28T06:43:35.888Z,-3.81
2022-11-28T06:46:04.169Z,-3.92
2022-11-28T06:48:32.528Z,-3.92
2022-11-28T06:51:05.442Z,-3.88
2022-11-28T06:53:34.332Z,-3.90
2022-11-28T06:56:06.385Z,-3.97
2022-11-28T06:58:35.064Z,-3.83
2022-11-28T07:01:11.841Z,-3.76
2022-11-28T07:03:40.724Z,-3.84
2022-11-28T07:06:10.760Z,-3.90
2022-11-28T07:08:39.101Z,-4.06
2022-11-28T07:11:12.802Z,-3.91
2022-11-28T07:13:41.644Z,-3.84
2022-11-28T07:16:12.066Z,-3.85
2022-11-28T07:18:40.364Z,-3.89
2022-11-28T07:21:10.848Z,-3.89
2022-11-28T07:23:39.385Z,-3.85
2022-11-28T07:26:08.141Z,-3.78
2022-11-28T07:28:36.840Z,-3.88
2022-11-28T07:31:07.112Z,-3.91
2022-11-28T07:33:36.538Z,-4.06
2022-11-28T07:36:06.914Z,-3.93
2022-11-28T07:38:36.523Z,-3.86
2022-11-28T07:41:05.509Z,-3.81
2022-11-28T07:43:33.821Z,-3.79
2022-11-28T07:46:06.163Z,-3.89
2022-11-28T07:48:34.719Z,-3.87
2022-11-28T07:51:07.033Z,-3.77
2022-11-28T07:53:36.973Z,-3.81
2022-11-28T07:56:05.471Z,-3.84
2022-11-28T07:58:33.763Z,-3.71
2022-11-28T08:01:02.248Z,-3.72
2022-11-28T08:03:30.442Z,-3.71
2022-11-28T08:06:03.064Z,-3.79
2022-11-28T08:08:31.801Z,-3.66
2022-11-28T08:11:03.054Z,-3.63
2022-11-28T08:13:31.441Z,-3.73
2022-11-28T08:15:59.751Z,-3.67
2022-11-28T08:18:27.972Z,-3.67
2022-11-28T08:21:04.914Z,-3.72
2022-11-28T08:23:34.503Z,-3.66
2022-11-28T08:26:04.828Z,-3.61
2022-11-28T08:28:33.450Z,-3.46
2022-11-28T08:31:04.270Z,-3.51
2022-11-28T08:33:32.576Z,-3.67
2022-11-28T08:36:00.795Z,-3.62
2022-11-28T08:38:29.102Z,-3.41
2022-11-28T08:41:03.876Z,-3.48
2022-11-28T08:43:32.322Z,-3.43
2022-11-28T08:46:00.517Z,-3.51
2022-11-28T08:48:29.549Z,-3.51
2022-11-28T08:50:58.425Z,-3.44
2022-11-28T08:53:26.621Z,-3.45
2022-11-28T08:55:55.073Z,-3.43
2022-11-28T08:58:24.800Z,-3.52
2022-11-28T09:00:53.444Z,-3.49
2022-11-28T09:03:21.952Z,-3.42
2022-11-28T09:05:50.377Z,-3.41
2022-11-28T09:08:20.384Z,-3.47
2022-11-28T09:10:49.156Z,-3.54
2022-11-28T09:13:18.086Z,-3.45
2022-11-28T09:15:51.253Z,-3.45
2022-11-28T09:18:21.015Z,-3.44
2022-11-28T09:20:49.438Z,-3.31
2022-11-28T09:23:17.717Z,-3.31
2022-11-28T09:25:46.042Z,-3.40
2022-11-28T09:28:14.216Z,-3.52
2022-11-28T09:30:42.428Z,-3.46
2022-11-28T09:33:13.682Z,-3.50
2022-11-28T09:35:41.956Z,-3.45
2022-11-28T09:38:12.976Z,-3.51
2022-11-28T09:40:43.882Z,-3.59
2022-11-28T09:43:16.663Z,-3.57
2022-11-28T09:45:46.066Z,-3.69
2022-11-28T09:48:26.622Z,-3.59
2022-11-28T09:50:59.084Z,-3.44
2022-11-28T09:53:31.631Z,-3.46
2022-11-28T09:56:01.765Z,-3.64
2022-11-28T09:58:35.452Z,-3.66
2022-11-28T10:01:16.975Z,-3.65
2022-11-28T10:03:53.153Z,-3.55
2022-11-28T10:06:24.310Z,-3.62
2022-11-28T10:09:04.140Z,-3.46
2022-11-28T10:11:41.096Z,-3.42
2022-11-28T10:14:23.468Z,-3.52
2022-11-28T10:16:58.881Z,-3.55
2022-11-28T10:19:53.357Z,-3.46
2022-11-28T10:22:24.424Z,-3.53
2022-11-28T10:24:55.534Z,-3.40
2022-11-28T10:27:27.211Z,-3.30
2022-11-28T10:30:00.132Z,-3.25
2022-11-28T10:32:33.409Z,-3.26
2022-11-28T10:35:06.083Z,-3.41
2022-11-28T10:37:37.181Z,-3.44
2022-11-28T10:40:17.932Z,-3.48
2022-11-28T10:42:49.991Z,-3.32
2022-11-28T10:45:23.805Z,-3.34
2022-11-28T10:48:38.674Z,-3.37
2022-11-28T10:51:09.948Z,-3.39
2022-11-28T10:53:43.253Z,-3.61
2022-11-28T10:56:14.123Z,-3.59
2022-11-28T10:58:48.769Z,-3.69
2022-11-28T11:01:17.127Z,-3.73
2022-11-28T11:03:45.598Z,-3.65
2022-11-28T11:06:16.325Z,-3.64
2022-11-28T11:08:46.947Z,-3.57
2022-11-28T11:11:24.512Z,-3.49
2022-11-28T11:13:58.604Z,-3.63
2022-11-28T11:16:27.149Z,-3.66
2022-11-28T11:18:56.412Z,-3.70
2022-11-28T11:21:27.664Z,-3.74
2022-11-28T11:24:14.505Z,-3.61
2022-11-28T11:26:45.368Z,-3.57
2022-11-28T11:29:22.283Z,-3.61
2022-11-28T11:31:53.004Z,-3.60
2022-11-28T11:34:22.718Z,-3.49
2022-11-28T11:36:53.521Z,-3.52
2022-11-28T11:39:24.004Z,-3.62
2022-11-28T11:41:53.956Z,-3.60
2022-11-28T11:44:34.368Z,-3.49
2022-11-28T11:47:05.403Z,-3.43
2022-11-28T11:49:35.618Z,-3.41
2022-11-28T11:52:07.314Z,-3.71
2022-11-28T11:54:35.522Z,-3.69
2022-11-28T11:57:31.235Z,-3.66
2022-11-28T11:59:55.138Z,-3.63
2022-11-28T12:02:26.631Z,-3.76
2022-11-28T12:05:02.567Z,-3.60
2022-11-28T12:07:39.064Z,-3.64
2022-11-28T12:10:11.248Z,-3.71
2022-11-28T12:12:40.368Z,-3.71
2022-11-28T12:15:14.709Z,-3.78
2022-11-28T12:17:50.006Z,-3.77
2022-11-28T12:20:39.436Z,-3.84
2022-11-28T12:23:17.715Z,-3.99
2022-11-28T12:25:49.899Z,-3.94
2022-11-28T12:28:29.481Z,-3.80
2022-11-28T12:31:06.830Z,-3.76
2022-11-28T12:33:43.996Z,-3.70
2022-11-28T12:36:18.356Z,-3.75
2022-11-28T12:39:05.077Z,-3.84
2022-11-28T12:41:47.720Z,-4.02
2022-11-28T12:44:23.422Z,-4.09
2022-11-28T12:46:57.909Z,-4.23
2022-11-28T12:49:34.219Z,-4.14
2022-11-28T12:52:08.594Z,-4.07
2022-11-28T12:54:47.107Z,-4.15
2022-11-28T12:57:23.109Z,-4.28
2022-11-28T12:59:54.988Z,-4.34
2022-11-28T13:02:31.088Z,-4.33
2022-11-28T13:05:16.840Z,-4.25
2022-11-28T13:07:55.015Z,-4.22
2022-11-28T13:10:28.446Z,-4.21
2022-11-28T13:13:00.020Z,-4.19
2022-11-28T13:15:40.968Z,-4.20
2022-11-28T13:18:18.162Z,-4.20
2022-11-28T13:20:50.835Z,-4.14
2022-11-28T13:23:22.132Z,-4.03
2022-11-28T13:25:54.694Z,-4.24
2022-11-28T13:28:26.469Z,-4.13
2022-11-28T13:30:57.803Z,-4.24
2022-11-28T13:33:38.413Z,-4.29
2022-11-28T13:36:09.229Z,-4.29
2022-11-28T13:39:08.221Z,-4.24
2022-11-28T13:42:10.099Z,-4.22
2022-11-28T13:44:36.647Z,-4.19
2022-11-28T13:47:15.613Z,-4.17
2022-11-28T13:49:43.929Z,-4.30
2022-11-28T13:52:34.239Z,-4.26
2022-11-28T13:55:02.602Z,-4.13
2022-11-28T13:57:38.417Z,-4.26
2022-11-28T14:00:14.893Z,-4.16
2022-11-28T14:02:46.209Z,-4.08
2022-11-28T14:05:33.339Z,-4.07
2022-11-28T14:08:02.247Z,-4.07
2022-11-28T14:10:59.487Z,-4.12
2022-11-28T14:13:52.314Z,-4.22
2022-11-28T14:16:30.199Z,-4.27
2022-11-28T14:19:06.925Z,-4.24
2022-11-28T14:21:46.360Z,-4.29
2022-11-28T14:24:21.659Z,-4.19
2022-11-28T14:26:58.748Z,-4.24
2022-11-28T14:29:34.008Z,-4.15
2022-11-28T14:34:51.096Z,-4.36
2022-11-28T14:37:38.324Z,-4.35
2022-11-28T14:40:47.263Z,-4.37
2022-11-28T14:43:30.058Z,-4.34
2022-11-28T14:46:35.310Z,-4.37
2022-11-28T14:49:22.888Z,-4.32
2022-11-28T14:52:37.689Z,-4.26
2022-11-28T14:55:05.025Z,-4.17
2022-11-28T14:57:36.137Z,-4.23
2022-11-28T15:00:08.202Z,-4.18
2022-11-28T15:02:52.851Z,-4.15
2022-11-28T15:05:32.298Z,-4.28
2022-11-28T15:08:17.326Z,-4.30
2022-11-28T15:10:51.716Z,-4.26
2022-11-28T15:13:32.592Z,-4.30
2022-11-28T15:16:01.137Z,-4.25
2022-11-28T15:18:31.299Z,-4.27
2022-11-28T15:21:03.691Z,-4.20
2022-11-28T15:23:33.637Z,-4.22
2022-11-28T15:26:03.614Z,-4.22
2022-11-28T15:28:35.631Z,-4.18
2022-11-28T15:31:05.955Z,-4.33
2022-11-28T15:33:34.848Z,-4.28
2022-11-28T15:36:10.997Z,-4.28
2022-11-28T15:38:39.809Z,-4.24
2022-11-28T15:41:08.090Z,-4.20
2022-11-28T15:43:37.759Z,-4.19
2022-11-28T15:46:08.122Z,-4.21
2022-11-28T15:48:40.182Z,-4.22
2022-11-28T15:51:20.186Z,-4.26
2022-11-28T15:53:48.546Z,-4.26
2022-11-28T15:56:17.340Z,-4.28
2022-11-28T15:58:47.827Z,-4.18
2022-11-28T16:01:20.731Z,-4.18
2022-11-28T16:03:53.464Z,-4.24
2022-11-28T16:06:25.194Z,-4.26
2022-11-28T16:08:55.408Z,-4.15
2022-11-28T16:11:25.940Z,-4.17
2022-11-28T16:13:55.470Z,-4.09
2022-11-28T16:16:26.432Z,-4.14
2022-11-28T16:18:58.732Z,-4.22
2022-11-28T16:21:31.701Z,-4.13
2022-11-28T16:24:00.848Z,-4.21
2022-11-28T16:26:32.515Z,-4.14
2022-11-28T16:29:04.805Z,-4.16
2022-11-28T16:31:33.664Z,-4.27
2022-11-28T16:34:03.003Z,-4.28
2022-11-28T16:36:36.660Z,-4.24
2022-11-28T16:39:07.834Z,-4.20
2022-11-28T16:41:36.844Z,-4.20
2022-11-28T16:44:07.483Z,-4.19
2022-11-28T16:46:37.966Z,-4.29
2022-11-28T16:49:09.245Z,-4.19
2022-11-28T16:51:41.043Z,-4.20
2022-11-28T16:54:33.139Z,-4.13
2022-11-28T16:57:14.838Z,-4.16
2022-11-28T16:59:43.949Z,-4.18
2022-11-28T17:02:17.333Z,-4.23
2022-11-28T17:04:45.985Z,-4.10
2022-11-28T17:07:17.603Z,-4.15
2022-11-28T17:09:47.042Z,-4.32
2022-11-28T17:12:20.409Z,-4.36
2022-11-28T17:14:48.688Z,-4.28
2022-11-28T17:17:18.160Z,-4.26
2022-11-28T17:19:46.822Z,-4.25
2022-11-28T17:22:18.819Z,-4.21
2022-11-28T17:24:47.966Z,-4.19
2022-11-28T17:27:16.707Z,-4.17
2022-11-28T17:29:45.198Z,-4.04
2022-11-28T17:32:14.459Z,-4.06
2022-11-28T17:34:43.618Z,-4.05
2022-11-28T17:37:12.366Z,-4.03
2022-11-28T17:40:02.766Z,-4.16
2022-11-28T17:42:32.188Z,-4.04
2022-11-28T17:45:00.513Z,-4.04
2022-11-28T17:47:30.644Z,-4.03
2022-11-28T17:49:58.964Z,-3.89
2022-11-28T17:52:30.433Z,-3.95
2022-11-28T17:55:06.896Z,-4.00
2022-11-28T17:57:35.646Z,-4.07
2022-11-28T18:00:06.711Z,-3.99
2022-11-28T18:02:35.277Z,-4.07
2022-11-28T18:05:03.813Z,-4.13
2022-11-28T18:07:32.384Z,-3.98
2022-11-28T18:10:02.089Z,-3.99
2022-11-28T18:12:32.993Z,-4.02
2022-11-28T18:15:02.345Z,-3.97
2022-11-28T18:17:33.797Z,-4.04
2022-11-28T18:20:03.614Z,-3.98
2022-11-28T18:22:32.392Z,-4.06
2022-11-28T18:25:02.314Z,-4.06
2022-11-28T18:27:32.141Z,-3.98
2022-11-28T18:30:00.464Z,-3.98
2022-11-28T18:32:28.938Z,-3.98
2022-11-28T18:34:57.255Z,-4.01
2022-11-28T18:37:25.548Z,-3.98
2022-11-28T18:39:54.244Z,-3.99
2022-11-28T18:42:23.961Z,-3.92
2022-11-28T18:44:52.165Z,-3.88
2022-11-28T18:47:20.840Z,-3.98
2022-11-28T18:49:49.317Z,-4.01
2022-11-28T18:52:17.722Z,-4.03
2022-11-28T18:54:46.350Z,-3.95
2022-11-28T18:57:15.288Z,-4.09
2022-11-28T18:59:52.887Z,-3.99
2022-11-28T19:02:23.184Z,-3.93
2022-11-28T19:04:51.756Z,-3.97
2022-11-28T19:07:20.176Z,-4.01
2022-11-28T19:09:48.609Z,-3.98
2022-11-28T19:12:16.980Z,-4.01
2022-11-28T19:14:46.761Z,-4.00
2022-11-28T19:17:15.228Z,-3.98
2022-11-28T19:19:44.363Z,-4.07
2022-11-28T19:22:13.194Z,-4.05
2022-11-28T19:24:41.688Z,-4.12
2022-11-28T19:27:14.216Z,-3.94
2022-11-28T19:29:43.420Z,-3.93
2022-11-28T19:32:13.637Z,-3.83
2022-11-28T19:34:42.094Z,-3.91
2022-11-28T19:37:10.488Z,-3.90
2022-11-28T19:39:38.965Z,-3.83
2022-11-28T19:42:10.080Z,-3.81
2022-11-28T19:44:38.418Z,-3.83
2022-11-28T19:47:06.975Z,-3.78
2022-11-28T19:49:36.727Z,-3.90
2022-11-28T19:52:05.457Z,-3.98
2022-11-28T19:54:35.027Z,-3.97
2022-11-28T19:57:03.549Z,-4.04
2022-11-28T19:59:31.927Z,-4.04
2022-11-28T20:02:01.110Z,-4.07
2022-11-28T20:04:29.671Z,-4.04
2022-11-28T20:06:59.345Z,-4.08
2022-11-28T20:09:27.611Z,-4.04
2022-11-28T20:11:55.912Z,-4.05
2022-11-28T20:14:24.180Z,-4.04
2022-11-28T20:16:53.172Z,-4.07
2022-11-28T20:19:21.602Z,-4.14
2022-11-28T20:21:49.870Z,-4.06
2022-11-28T20:24:19.565Z,-4.10
2022-11-28T20:26:48.359Z,-4.11
2022-11-28T20:29:18.910Z,-4.14
2022-11-28T20:31:48.928Z,-4.16
2022-11-28T20:34:18.565Z,-4.14
2022-11-28T20:36:47.405Z,-4.13
2022-11-28T20:39:16.697Z,-4.06
2022-11-28T20:41:46.597Z,-4.04
2022-11-28T20:44:14.814Z,-4.01
2022-11-28T20:46:44.230Z,-3.98
2022-11-28T20:49:12.594Z,-3.99
2022-11-28T20:51:41.085Z,-3.92
2022-11-28T20:54:09.601Z,-3.96
2022-11-28T20:57:05.010Z,-3.96
2022-11-28T20:59:29.848Z,-4.03
2022-11-28T21:01:58.080Z,-3.95
2022-11-28T21:04:26.354Z,-3.97
2022-11-28T21:06:54.645Z,-4.00
2022-11-28T21:09:23.447Z,-4.00
2022-11-28T21:11:59.589Z,-4.00
2022-11-28T21:14:30.292Z,-4.07
2022-11-28T21:16:59.642Z,-4.05
2022-11-28T21:19:27.928Z,-4.00
2022-11-28T21:21:56.297Z,-3.92
2022-11-28T21:24:24.567Z,-3.91
2022-11-28T21:26:54.351Z,-4.01
2022-11-28T21:29:24.204Z,-4.02
2022-11-28T21:31:54.865Z,-3.97
2022-11-28T21:34:23.336Z,-3.96
2022-11-28T21:36:51.774Z,-3.89
2022-11-28T21:39:22.141Z,-3.88
2022-11-28T21:41:51.406Z,-3.85
2022-11-28T21:44:19.731Z,-3.96
2022-11-28T21:46:48.083Z,-3.92
2022-11-28T21:49:17.765Z,-3.97
2022-11-28T21:51:46.134Z,-4.05
2022-11-28T21:54:14.495Z,-4.00
2022-11-28T21:56:42.812Z,-4.04
2022-11-28T21:59:11.124Z,-4.06
2022-11-28T22:01:40.292Z,-3.97
2022-11-28T22:04:08.998Z,-3.87
2022-11-28T22:06:38.728Z,-3.99
2022-11-28T22:09:09.453Z,-4.04
2022-11-28T22:11:38.805Z,-3.96
2022-11-28T22:14:07.271Z,-4.08
2022-11-28T22:16:35.731Z,-4.04
2022-11-28T22:19:04.199Z,-3.94
2022-11-28T22:24:23.030Z,-3.83
2022-11-28T22:26:51.455Z,-4.00
2022-11-28T22:29:19.921Z,-3.88
2022-11-28T22:31:48.322Z,-3.90
2022-11-28T22:34:16.841Z,-3.97
2022-11-28T22:36:45.163Z,-4.08
2022-11-28T22:39:13.475Z,-4.22
2022-11-28T22:41:43.048Z,-4.26
2022-11-28T22:44:11.932Z,-4.37
2022-11-28T22:46:40.388Z,-4.37
2022-11-28T22:49:08.626Z,-4.42
2022-11-28T22:51:37.455Z,-4.39
2022-11-28T22:54:06.071Z,-4.30
2022-11-28T22:56:36.421Z,-4.29
2022-11-28T22:59:07.503Z,-4.27
2022-11-28T23:01:35.819Z,-4.33
2022-11-28T23:04:04.215Z,-4.33
2022-11-28T23:06:34.589Z,-4.37
2022-11-28T23:09:06.206Z,-4.44
2022-11-28T23:11:36.084Z,-4.55
2022-11-28T23:14:06.573Z,-4.49
2022-11-28T23:16:36.473Z,-4.50
2022-11-28T23:19:07.092Z,-4.52
2022-11-28T23:21:37.946Z,-4.57
2022-11-28T23:24:07.041Z,-4.69
2022-11-28T23:26:35.935Z,-4.47
2022-11-28T23:29:07.048Z,-4.48
2022-11-28T23:31:36.993Z,-4.62
2022-11-28T23:34:05.397Z,-4.69
2022-11-28T23:36:41.485Z,-4.63
2022-11-28T23:39:12.738Z,-4.64
2022-11-28T23:41:41.393Z,-4.63
2022-11-28T23:44:11.723Z,-4.62
2022-11-28T23:46:40.330Z,-4.64
2022-11-28T23:49:09.237Z,-4.60
2022-11-28T23:51:37.977Z,-4.71
2022-11-28T23:54:06.301Z,-4.77
2022-11-28T23:56:36.121Z,-4.69
2022-11-28T23:59:06.490Z,-4.67
